Rio Linda — WDD8906 — position and weather

sailwx.info

Track history (hours):
 
Tides and Currents Weather Stations Pressure Air Temp Water Temp Dewpoint Dewpoint Depression Visibility Wind Speed Wind Dir Waves Ship Positions

Rio Linda

Owner: Losch, Richard, Bend, OR. More information available from US FCC via Universal Licensing System and Coast Guard Vessel Documentation Center.

Last reported at 2017-Dec-27 23:36 UTC. Time now 2018-Apr-22 21:40 UTC.
Position N 47°39' W 122°19'.
Warning: this ship's position is months out of date.

Length 17 m; draft 2 m.

Type: Pleasure craft. MMSI: 367304420.

Date/timePositionNaut miles runAvg speedWind from/ knotsBaromVisibWave heightAir tempDewpointWater temp
2017-Dec-27 23:36N 47°39' W 122°19'0 1.3
2017-Dec-27 23:30N 47°39' W 122°19'2 4.9
2017-Dec-27 23:00N 47°40' W 122°23'1 2.1
2017-Dec-27 22:30N 47°40' W 122°24'0 0.3
2017-Dec-27 22:00N 47°40' W 122°24'2 3.7
2017-Dec-27 21:30N 47°39' W 122°27'4 7.6
2017-Dec-27 21:00N 47°35' W 122°28'3 0.1
2017-Dec-27 00:04N 47°33' W 122°29'0 0.0
2017-Dec-27 00:01N 47°33' W 122°29'3 5.5
2017-Dec-26 23:31N 47°35' W 122°28'4 7.8
2017-Dec-26 23:00N 47°39' W 122°27'2 4.4
2017-Dec-26 22:30N 47°40' W 122°24'1 1.6
2017-Dec-26 22:01N 47°40' W 122°23'  
Track history (hours):
 
Tides and Currents Weather Stations Pressure Air Temp Water Temp Dewpoint Dewpoint Depression Visibility Wind Speed Wind Dir Waves Ship Positions

Rio Linda

Owner: Losch, Richard, Bend, OR. More information available from US FCC via Universal Licensing System and Coast Guard Vessel Documentation Center.

Last reported at 2017-Dec-27 23:36 UTC. Time now 2018-Apr-22 21:40 UTC.
Position N 47°39' W 122°19'.
Warning: this ship's position is months out of date.

Length 17 m; draft 2 m.

Type: Pleasure craft. MMSI: 367304420.

Date/timePositionNaut miles runAvg speedWind from/ knotsBaromVisibWave heightAir tempDewpointWater temp
2017-Dec-27 23:36N 47°39' W 122°19'0 1.3
2017-Dec-27 23:30N 47°39' W 122°19'2 4.9
2017-Dec-27 23:00N 47°40' W 122°23'1 2.1
2017-Dec-27 22:30N 47°40' W 122°24'0 0.3
2017-Dec-27 22:00N 47°40' W 122°24'2 3.7
2017-Dec-27 21:30N 47°39' W 122°27'4 7.6
2017-Dec-27 21:00N 47°35' W 122°28'3 0.1
2017-Dec-27 00:04N 47°33' W 122°29'0 0.0
2017-Dec-27 00:01N 47°33' W 122°29'3 5.5
2017-Dec-26 23:31N 47°35' W 122°28'4 7.8
2017-Dec-26 23:00N 47°39' W 122°27'2 4.4
2017-Dec-26 22:30N 47°40' W 122°24'1 1.6
2017-Dec-26 22:01N 47°40' W 122°23'  

Dump ship's entire track history